Logo Frankfurt-Egelsbach Airport
Hessische Flugplatz GmbH Egelsbach
Telefon : +49 (0)6103-9418-0
E-Mail : fly@egelsbach-airport.com
   

 

 

 

 

 

 

Aktuelle Daten

Öffnungszeiten: 0800 LT - SS+30 (max 2100 LT)

PPR: 0700 LT - 0800 LT, SS+30 - 2100 LT Tel +49 6103 9418-0

Behördlich vorgeschriebenes Briefing für NVFR-Anflüge mit HPA
für die Saison 2014/2015

» Behördlich vorgeschriebenes Briefing für NVFR-Anflüge mit HPA für die Saison 2014/2015

 

Webcam

Webcam

Wetterdaten

Beobachtung von : 28-MAR-2015 - 09:12 UTC
Sonnenaufgang : 05:11 UTC
Sonnenuntergang : 17:50 UTC
Sicht : ausgefallen
Wolkenuntergrenze : nicht feststellbar
Wind : 220 / 5 kt
Wind extrem (10 min) : 170-240 / 3-9 kt
Temperatur : 9.4° Celsius
Taupunkt : -0.2° Celsius
QNH : 1022.7 hPa
Dichtehöhe : -440 ft

Daten werden automatisch generiert. Verfügbarkeit und Richtigkeit ohne Gewähr.
Mit freundlicher Unterstützung des Deutschen Wetterdienstes

Metar

799
SADL31 EDFE 280850
METAR EDFE 280850Z 20004KT 9999 FEW030 BKN049 08/M00 Q1022=


Notam

Zur Zeit liegen keine NOTAM Meldungen vor.